Serenade Of The Seas — C6FV8 — position and weather

sailwx.info

Track history (hours):
 
Tides and Currents Weather Stations Pressure Air Temp Water Temp Dewpoint Dewpoint Depression Visibility Wind Speed Wind Dir Waves Ship Positions

Serenade Of The Seas

Operator: Royal Caribbean Cruises Ltd

Last reported at 2014-Aug-30 15:33 UTC. Time now 2014-Aug-30 16:31 UTC.
Position N 43°33' E 010°18'.

Length 294 m; draft 8.5 m.

Type: Ship. MMSI: 311492000.

Date/timePositionNaut miles runAvg speedWind from/ knotsBaromVisibWave heightAir tempDewpointWater temp
2014-Aug-30 15:33N 43°33' E 010°18'0 0.0
2014-Aug-30 14:33N 43°33' E 010°18'0 0.0
2014-Aug-30 13:33N 43°33' E 010°18'0 0.0
2014-Aug-30 12:33N 43°33' E 010°18'0 0.0
2014-Aug-30 11:30N 43°33' E 010°18'0 0.0
2014-Aug-30 10:33N 43°33' E 010°18'0 0.0
2014-Aug-30 09:33N 43°33' E 010°18'0 0.0
2014-Aug-30 08:33N 43°33' E 010°18'0 0.0
2014-Aug-30 07:33N 43°33' E 010°18'0 0.0
2014-Aug-30 06:33N 43°33' E 010°18'0 0.0
2014-Aug-30 05:33N 43°33' E 010°18'0 0.3
2014-Aug-30 04:34N 43°33' E 010°17'9 9.1
2014-Aug-30 03:34N 43°29' E 010°07'1616.3
2014-Aug-30 02:34N 43°32' E 009°44'1716.6
2014-Aug-30 01:34N 43°30' E 009°22'1717.5
2014-Aug-30 00:34N 43°24' E 008°58'1717.3
2014-Aug-29 23:34N 43°20' E 008°36'1717.2
2014-Aug-29 22:33N 43°15' E 008°13'1717.3
2014-Aug-29 21:33N 43°10' E 007°50'2117.3
2014-Aug-29 20:22N 43°04' E 007°23'1417.6
2014-Aug-29 19:34N 42°60' E 007°05'1817.7
2014-Aug-29 18:33N 42°55' E 006°41'1717.3
2014-Aug-29 17:33N 42°54' E 006°18'1616.2
2014-Aug-29 16:33N 43°03' E 005°60'5 2.4
2014-Aug-29 14:20N 43°06' E 005°54'0 0.0
2014-Aug-29 11:14N 43°06' E 005°54'0 0.0
2014-Aug-29 10:20N 43°06' E 005°54'0 0.0
2014-Aug-29 09:32N 43°06' E 005°54'0 0.0
2014-Aug-29 08:32N 43°06' E 005°54'0 0.0
2014-Aug-29 07:32N 43°06' E 005°54'0 0.0
2014-Aug-29 06:32N 43°06' E 005°54'0 0.0
2014-Aug-29 05:32N 43°06' E 005°54'0 0.3
2014-Aug-29 04:34N 43°06' E 005°54'9 9.3
2014-Aug-29 03:33N 42°58' E 006°01'1515.3
2014-Aug-29 02:34N 42°46' E 005°49'1717.3
2014-Aug-29 01:33N 42°37' E 005°29'1717.3
2014-Aug-29 00:33N 42°27' E 005°09'1717.3
2014-Aug-28 23:33N 42°18' E 004°49'1817.0
2014-Aug-28 22:31N 42°09' E 004°29'1717.6
2014-Aug-28 21:32N 41°60' E 004°09'1817.5
2014-Aug-28 20:32N 41°50' E 003°49'1917.0
2014-Aug-28 19:25N 41°40' E 003°28'1817.2
2014-Aug-28 18:20N 41°30' E 003°07'1617.3
2014-Aug-28 17:25N 41°22' E 002°49'1517.0
2014-Aug-28 16:33N 41°16' E 002°31'1515.5
2014-Aug-28 15:33N 41°17' E 002°10'4 2.8
2014-Aug-28 14:07N 41°22' E 002°11'0 0.0
2014-Aug-28 13:31N 41°22' E 002°11'0 0.0
2014-Aug-28 10:07N 41°22' E 002°11'0 0.0
2014-Aug-28 08:25N 41°22' E 002°11'0 0.0
2014-Aug-28 07:31N 41°22' E 002°11'0 0.0
2014-Aug-28 06:31N 41°22' E 002°11'0 0.0
2014-Aug-28 04:18N 41°22' E 002°11'0 0.0
2014-Aug-28 01:13N 41°22' E 002°11'0 0.0
2014-Aug-28 00:13N 41°22' E 002°11'0 0.0
2014-Aug-27 23:13N 41°22' E 002°11'0 0.0
2014-Aug-27 15:12N 41°22' E 002°11'0 0.0
2014-Aug-27 10:07N 41°22' E 002°11'0 0.0
2014-Aug-27 06:13N 41°22' E 002°11'0 0.0
2014-Aug-27 05:25N 41°22' E 002°11'0 0.1
2014-Aug-27 03:33N 41°22' E 002°11'6 5.9
2014-Aug-27 02:33N 41°16' E 002°14'1818.2
2014-Aug-27 01:33N 41°17' E 002°39'1919.0
2014-Aug-27 00:33N 41°27' E 003°00'1919.0
2014-Aug-26 23:33N 41°36' E 003°22'2019.6
2014-Aug-26 22:33N 41°47' E 003°45'1919.2
2014-Aug-26 21:33N 41°58' E 004°06'1918.9
2014-Aug-26 20:33N 42°08' E 004°27'1818.2
2014-Aug-26 19:33N 42°18' E 004°48'2019.4
2014-Aug-26 18:33N 42°28' E 005°10'1818.4
2014-Aug-26 17:33N 42°38' E 005°31'1918.9
2014-Aug-26 16:33N 42°47' E 005°53'1716.7
2014-Aug-26 15:33N 43°03' E 005°59'5 3.7
2014-Aug-26 14:20N 43°06' E 005°54'0 0.0
2014-Aug-26 12:29N 43°06' E 005°54'0 0.0
2014-Aug-26 11:32N 43°06' E 005°54'0 0.0
2014-Aug-26 10:29N 43°06' E 005°54'0 0.0
2014-Aug-26 09:29N 43°06' E 005°54'0 0.0
2014-Aug-26 08:29N 43°06' E 005°54'0 0.0
2014-Aug-26 07:32N 43°06' E 005°54'0 0.0
2014-Aug-26 06:32N 43°06' E 005°54'0 0.0
2014-Aug-26 05:33N 43°06' E 005°54'8 8.5
2014-Aug-26 04:33N 42°59' E 006°00'1413.6
2014-Aug-26 03:33N 42°54' E 006°18'1716.9
2014-Aug-26 02:33N 42°55' E 006°41'1716.8
2014-Aug-26 01:34N 43°01' E 007°02'1717.3
2014-Aug-26 00:33N 43°08' E 007°24'6917.2
2014-Aug-25 20:31N 43°38' E 008°49'1717.2
2014-Aug-25 19:34N 43°46' E 009°09'1717.1
2014-Aug-25 18:34N 43°52' E 009°32'1716.9
2014-Aug-25 17:34N 44°01' E 009°52'6 6.0
2014-Aug-25 16:33N 44°06' E 009°50'0 0.0
2014-Aug-25 15:33N 44°06' E 009°50'0 0.0
2014-Aug-25 14:33N 44°06' E 009°50'0 0.0
2014-Aug-25 13:33N 44°06' E 009°50'0 0.0
2014-Aug-25 12:33N 44°06' E 009°50'0 0.0
2014-Aug-25 11:33N 44°06' E 009°50'0 0.0
2014-Aug-25 10:33N 44°06' E 009°50'0 0.0
2014-Aug-25 09:33N 44°06' E 009°50'0 0.0
2014-Aug-25 08:33N 44°06' E 009°50'0 0.0
2014-Aug-25 07:33N 44°06' E 009°50'0 0.0
2014-Aug-25 06:33N 44°06' E 009°50'0 0.0
2014-Aug-25 05:33N 44°06' E 009°50'0 0.1
2014-Aug-25 04:34N 44°06' E 009°50'1110.6
2014-Aug-25 03:33N 43°58' E 009°59'1717.0
2014-Aug-25 02:33N 43°41' E 010°05'1616.5
2014-Aug-25 01:33N 43°25' E 010°08'1616.1
2014-Aug-25 00:33N 43°10' E 010°17'5415.6
2014-Aug-24 21:06N 42°18' E 010°36'169 6.8
2014-Aug-23 20:04N 40°37' E 013°38'917.5
2014-Aug-23 19:33N 40°35' E 013°49'  
Track history (hours):
 
Tides and Currents Weather Stations Pressure Air Temp Water Temp Dewpoint Dewpoint Depression Visibility Wind Speed Wind Dir Waves Ship Positions

Serenade Of The Seas

Operator: Royal Caribbean Cruises Ltd

Last reported at 2014-Aug-30 15:33 UTC. Time now 2014-Aug-30 16:31 UTC.
Position N 43°33' E 010°18'.

Length 294 m; draft 8.5 m.

Type: Ship. MMSI: 311492000.

Date/timePositionNaut miles runAvg speedWind from/ knotsBaromVisibWave heightAir tempDewpointWater temp
2014-Aug-30 15:33N 43°33' E 010°18'0 0.0
2014-Aug-30 14:33N 43°33' E 010°18'0 0.0
2014-Aug-30 13:33N 43°33' E 010°18'0 0.0
2014-Aug-30 12:33N 43°33' E 010°18'0 0.0
2014-Aug-30 11:30N 43°33' E 010°18'0 0.0
2014-Aug-30 10:33N 43°33' E 010°18'0 0.0
2014-Aug-30 09:33N 43°33' E 010°18'0 0.0
2014-Aug-30 08:33N 43°33' E 010°18'0 0.0
2014-Aug-30 07:33N 43°33' E 010°18'0 0.0
2014-Aug-30 06:33N 43°33' E 010°18'0 0.0
2014-Aug-30 05:33N 43°33' E 010°18'0 0.3
2014-Aug-30 04:34N 43°33' E 010°17'9 9.1
2014-Aug-30 03:34N 43°29' E 010°07'1616.3
2014-Aug-30 02:34N 43°32' E 009°44'1716.6
2014-Aug-30 01:34N 43°30' E 009°22'1717.5
2014-Aug-30 00:34N 43°24' E 008°58'1717.3
2014-Aug-29 23:34N 43°20' E 008°36'1717.2
2014-Aug-29 22:33N 43°15' E 008°13'1717.3
2014-Aug-29 21:33N 43°10' E 007°50'2117.3
2014-Aug-29 20:22N 43°04' E 007°23'1417.6
2014-Aug-29 19:34N 42°60' E 007°05'1817.7
2014-Aug-29 18:33N 42°55' E 006°41'1717.3
2014-Aug-29 17:33N 42°54' E 006°18'1616.2
2014-Aug-29 16:33N 43°03' E 005°60'5 2.4
2014-Aug-29 14:20N 43°06' E 005°54'0 0.0
2014-Aug-29 11:14N 43°06' E 005°54'0 0.0
2014-Aug-29 10:20N 43°06' E 005°54'0 0.0
2014-Aug-29 09:32N 43°06' E 005°54'0 0.0
2014-Aug-29 08:32N 43°06' E 005°54'0 0.0
2014-Aug-29 07:32N 43°06' E 005°54'0 0.0
2014-Aug-29 06:32N 43°06' E 005°54'0 0.0
2014-Aug-29 05:32N 43°06' E 005°54'0 0.3
2014-Aug-29 04:34N 43°06' E 005°54'9 9.3
2014-Aug-29 03:33N 42°58' E 006°01'1515.3
2014-Aug-29 02:34N 42°46' E 005°49'1717.3
2014-Aug-29 01:33N 42°37' E 005°29'1717.3
2014-Aug-29 00:33N 42°27' E 005°09'1717.3
2014-Aug-28 23:33N 42°18' E 004°49'1817.0
2014-Aug-28 22:31N 42°09' E 004°29'1717.6
2014-Aug-28 21:32N 41°60' E 004°09'1817.5
2014-Aug-28 20:32N 41°50' E 003°49'1917.0
2014-Aug-28 19:25N 41°40' E 003°28'1817.2
2014-Aug-28 18:20N 41°30' E 003°07'1617.3
2014-Aug-28 17:25N 41°22' E 002°49'1517.0
2014-Aug-28 16:33N 41°16' E 002°31'1515.5
2014-Aug-28 15:33N 41°17' E 002°10'4 2.8
2014-Aug-28 14:07N 41°22' E 002°11'0 0.0
2014-Aug-28 13:31N 41°22' E 002°11'0 0.0
2014-Aug-28 10:07N 41°22' E 002°11'0 0.0
2014-Aug-28 08:25N 41°22' E 002°11'0 0.0
2014-Aug-28 07:31N 41°22' E 002°11'0 0.0
2014-Aug-28 06:31N 41°22' E 002°11'0 0.0
2014-Aug-28 04:18N 41°22' E 002°11'0 0.0
2014-Aug-28 01:13N 41°22' E 002°11'0 0.0
2014-Aug-28 00:13N 41°22' E 002°11'0 0.0
2014-Aug-27 23:13N 41°22' E 002°11'0 0.0
2014-Aug-27 15:12N 41°22' E 002°11'0 0.0
2014-Aug-27 10:07N 41°22' E 002°11'0 0.0
2014-Aug-27 06:13N 41°22' E 002°11'0 0.0
2014-Aug-27 05:25N 41°22' E 002°11'0 0.1
2014-Aug-27 03:33N 41°22' E 002°11'6 5.9
2014-Aug-27 02:33N 41°16' E 002°14'1818.2
2014-Aug-27 01:33N 41°17' E 002°39'1919.0
2014-Aug-27 00:33N 41°27' E 003°00'1919.0
2014-Aug-26 23:33N 41°36' E 003°22'2019.6
2014-Aug-26 22:33N 41°47' E 003°45'1919.2
2014-Aug-26 21:33N 41°58' E 004°06'1918.9
2014-Aug-26 20:33N 42°08' E 004°27'1818.2
2014-Aug-26 19:33N 42°18' E 004°48'2019.4
2014-Aug-26 18:33N 42°28' E 005°10'1818.4
2014-Aug-26 17:33N 42°38' E 005°31'1918.9
2014-Aug-26 16:33N 42°47' E 005°53'1716.7
2014-Aug-26 15:33N 43°03' E 005°59'5 3.7
2014-Aug-26 14:20N 43°06' E 005°54'0 0.0
2014-Aug-26 12:29N 43°06' E 005°54'0 0.0
2014-Aug-26 11:32N 43°06' E 005°54'0 0.0
2014-Aug-26 10:29N 43°06' E 005°54'0 0.0
2014-Aug-26 09:29N 43°06' E 005°54'0 0.0
2014-Aug-26 08:29N 43°06' E 005°54'0 0.0
2014-Aug-26 07:32N 43°06' E 005°54'0 0.0
2014-Aug-26 06:32N 43°06' E 005°54'0 0.0
2014-Aug-26 05:33N 43°06' E 005°54'8 8.5
2014-Aug-26 04:33N 42°59' E 006°00'1413.6
2014-Aug-26 03:33N 42°54' E 006°18'1716.9
2014-Aug-26 02:33N 42°55' E 006°41'1716.8
2014-Aug-26 01:34N 43°01' E 007°02'1717.3
2014-Aug-26 00:33N 43°08' E 007°24'6917.2
2014-Aug-25 20:31N 43°38' E 008°49'1717.2
2014-Aug-25 19:34N 43°46' E 009°09'1717.1
2014-Aug-25 18:34N 43°52' E 009°32'1716.9
2014-Aug-25 17:34N 44°01' E 009°52'6 6.0
2014-Aug-25 16:33N 44°06' E 009°50'0 0.0
2014-Aug-25 15:33N 44°06' E 009°50'0 0.0
2014-Aug-25 14:33N 44°06' E 009°50'0 0.0
2014-Aug-25 13:33N 44°06' E 009°50'0 0.0
2014-Aug-25 12:33N 44°06' E 009°50'0 0.0
2014-Aug-25 11:33N 44°06' E 009°50'0 0.0
2014-Aug-25 10:33N 44°06' E 009°50'0 0.0
2014-Aug-25 09:33N 44°06' E 009°50'0 0.0
2014-Aug-25 08:33N 44°06' E 009°50'0 0.0
2014-Aug-25 07:33N 44°06' E 009°50'0 0.0
2014-Aug-25 06:33N 44°06' E 009°50'0 0.0
2014-Aug-25 05:33N 44°06' E 009°50'0 0.1
2014-Aug-25 04:34N 44°06' E 009°50'1110.6
2014-Aug-25 03:33N 43°58' E 009°59'1717.0
2014-Aug-25 02:33N 43°41' E 010°05'1616.5
2014-Aug-25 01:33N 43°25' E 010°08'1616.1
2014-Aug-25 00:33N 43°10' E 010°17'5415.6
2014-Aug-24 21:06N 42°18' E 010°36'169 6.8
2014-Aug-23 20:04N 40°37' E 013°38'917.5
2014-Aug-23 19:33N 40°35' E 013°49'  

Dump ship's entire track history